createdAt,value
2022-12-14T00:02:24.090Z,42.28
2022-12-14T00:05:43.437Z,41.20
2022-12-14T00:09:03.929Z,41.05
2022-12-14T00:12:20.361Z,41.48
2022-12-14T00:15:36.988Z,41.18
2022-12-14T00:18:56.313Z,40.18
2022-12-14T00:22:12.571Z,40.60
2022-12-14T00:25:29.076Z,40.28
2022-12-14T00:28:46.066Z,40.15
2022-12-14T00:32:02.400Z,40.60
2022-12-14T00:35:22.412Z,42.68
2022-12-14T00:38:39.077Z,41.10
2022-12-14T00:41:56.274Z,40.08
2022-12-14T00:45:15.126Z,41.00
2022-12-14T00:48:33.162Z,40.83
2022-12-14T00:51:51.237Z,42.60
2022-12-14T00:55:07.443Z,41.98
2022-12-14T00:58:28.699Z,42.18
2022-12-14T01:01:46.931Z,42.35
2022-12-14T01:05:05.462Z,40.83
2022-12-14T01:08:21.812Z,41.45
2022-12-14T01:11:38.536Z,39.88
2022-12-14T01:14:56.007Z,40.13
2022-12-14T01:18:13.936Z,41.40
2022-12-14T01:21:32.443Z,39.40
2022-12-14T01:24:50.782Z,41.23
2022-12-14T01:28:07.867Z,40.97
2022-12-14T01:31:28.251Z,40.13
2022-12-14T01:34:44.848Z,43.90
2022-12-14T01:38:01.296Z,44.05
2022-12-14T01:41:26.077Z,42.45
2022-12-14T01:45:11.993Z,44.68
2022-12-14T01:48:28.983Z,42.90
2022-12-14T01:51:48.912Z,43.23
2022-12-14T01:55:10.370Z,43.70
2022-12-14T01:58:30.459Z,44.23
2022-12-14T02:01:49.281Z,44.20
2022-12-14T02:05:09.475Z,43.28
2022-12-14T02:08:28.965Z,43.50
2022-12-14T02:11:52.157Z,42.55
2022-12-14T02:15:12.281Z,45.63
2022-12-14T02:18:32.033Z,44.93
2022-12-14T02:22:06.019Z,44.15
2022-12-14T02:25:50.877Z,43.05
2022-12-14T02:30:00.249Z,41.43
2022-12-14T02:36:52.968Z,46.18
2022-12-14T02:40:19.905Z,45.80
2022-12-14T02:43:41.893Z,43.03
2022-12-14T02:47:03.913Z,44.48
2022-12-14T02:50:25.633Z,43.55
2022-12-14T02:53:47.931Z,43.53
2022-12-14T02:57:09.884Z,44.93
2022-12-14T03:00:29.255Z,42.60
2022-12-14T03:03:51.281Z,42.18
2022-12-14T03:07:24.607Z,42.13
2022-12-14T03:10:50.068Z,43.68
2022-12-14T03:14:12.475Z,43.23
2022-12-14T03:17:34.449Z,42.80
2022-12-14T03:20:54.115Z,41.95
2022-12-14T03:24:14.274Z,42.13
2022-12-14T03:27:35.398Z,43.33
2022-12-14T03:31:00.264Z,43.20
2022-12-14T03:34:18.032Z,43.38
2022-12-14T03:37:38.426Z,43.58
2022-12-14T03:41:01.794Z,43.50
2022-12-14T03:44:31.265Z,45.68
2022-12-14T03:48:02.775Z,44.50
2022-12-14T03:51:26.275Z,44.80
2022-12-14T03:54:51.451Z,45.73
2022-12-14T03:58:41.646Z,44.75
2022-12-14T04:02:03.651Z,47.58
2022-12-14T04:05:24.270Z,49.25
2022-12-14T04:08:47.098Z,48.53
2022-12-14T04:12:24.927Z,49.93
2022-12-14T04:15:57.947Z,49.13
2022-12-14T04:19:19.496Z,49.58
2022-12-14T04:22:42.415Z,51.00
2022-12-14T04:26:09.899Z,50.28
2022-12-14T04:29:47.427Z,52.60
2022-12-14T04:33:10.950Z,52.50
2022-12-14T04:36:33.459Z,51.65
2022-12-14T04:39:55.194Z,50.03
2022-12-14T04:43:15.901Z,52.80
2022-12-14T04:46:40.508Z,52.80
2022-12-14T04:50:00.676Z,50.23
2022-12-14T04:53:21.382Z,53.38
2022-12-14T04:56:42.500Z,48.85
2022-12-14T04:59:59.573Z,48.55
2022-12-14T05:03:27.693Z,47.15
2022-12-14T05:06:49.946Z,46.18
2022-12-14T05:10:11.750Z,47.00
2022-12-14T05:13:31.973Z,45.88
2022-12-14T05:16:51.285Z,45.28
2022-12-14T05:23:22.830Z,42.80
2022-12-14T05:26:41.018Z,43.13
2022-12-14T05:29:57.299Z,42.95
2022-12-14T05:33:14.789Z,45.85
2022-12-14T05:36:31.226Z,46.90
2022-12-14T05:39:47.433Z,45.58
2022-12-14T05:43:15.145Z,45.48
2022-12-14T05:46:31.483Z,44.23
2022-12-14T05:49:49.219Z,46.13
2022-12-14T05:53:05.126Z,46.23
2022-12-14T05:56:24.677Z,45.63
2022-12-14T05:59:41.286Z,47.63
2022-12-14T06:02:57.590Z,47.93
2022-12-14T06:06:17.075Z,47.78
2022-12-14T06:12:48.270Z,49.48
2022-12-14T06:16:16.251Z,48.28
2022-12-14T06:19:32.607Z,48.28
2022-12-14T06:22:49.319Z,48.55
2022-12-14T06:26:06.178Z,50.85
2022-12-14T06:29:25.826Z,47.28
2022-12-14T06:32:42.080Z,48.63
2022-12-14T06:35:58.357Z,50.63
2022-12-14T06:39:19.571Z,49.73
2022-12-14T06:42:35.886Z,52.65
2022-12-14T06:45:52.224Z,55.20
2022-12-14T06:49:08.957Z,56.50
2022-12-14T06:52:26.901Z,56.95
2022-12-14T06:55:43.103Z,56.58
2022-12-14T06:59:00.531Z,56.83
2022-12-14T07:02:19.590Z,58.23
2022-12-14T07:05:36.791Z,57.48
2022-12-14T07:08:53.199Z,58.93
2022-12-14T07:12:09.625Z,59.35
2022-12-14T07:15:26.086Z,57.15
2022-12-14T07:18:43.452Z,59.18
2022-12-14T07:22:01.750Z,57.88
2022-12-14T07:25:18.798Z,60.83
2022-12-14T07:28:36.456Z,59.00
2022-12-14T07:31:52.743Z,59.55
2022-12-14T07:35:16.516Z,56.90
2022-12-14T07:38:30.776Z,56.90
2022-12-14T07:41:49.824Z,56.38
2022-12-14T07:45:12.064Z,57.58
2022-12-14T07:48:28.749Z,56.68
2022-12-14T07:51:47.351Z,57.43
2022-12-14T07:55:03.723Z,60.90
2022-12-14T07:58:20.406Z,59.88
2022-12-14T08:01:39.808Z,58.18
2022-12-14T08:04:57.771Z,59.78
2022-12-14T08:08:14.363Z,61.90
2022-12-14T08:11:31.651Z,60.23
2022-12-14T08:14:48.180Z,60.10
2022-12-14T08:18:05.588Z,57.23
2022-12-14T08:21:22.940Z,55.95
2022-12-14T08:24:39.836Z,56.30
2022-12-14T08:27:55.985Z,56.68
2022-12-14T08:31:18.204Z,54.78
2022-12-14T08:34:34.608Z,57.53
2022-12-14T08:37:51.272Z,57.38
2022-12-14T08:41:11.620Z,59.30
2022-12-14T08:44:28.600Z,54.95
2022-12-14T08:47:47.292Z,55.23
2022-12-14T08:51:08.367Z,56.43
2022-12-14T08:54:25.023Z,55.23
2022-12-14T08:57:41.580Z,54.63
2022-12-14T09:00:58.606Z,55.70
2022-12-14T09:04:18.726Z,55.83
2022-12-14T09:07:35.346Z,141.58
2022-12-14T09:10:56.846Z,72.55
2022-12-14T09:14:13.066Z,58.33
2022-12-14T09:17:29.277Z,54.58
2022-12-14T09:20:46.036Z,54.60
2022-12-14T09:24:04.154Z,53.13
2022-12-14T09:27:20.677Z,56.68
2022-12-14T09:30:36.917Z,54.80
2022-12-14T09:33:53.328Z,50.58
2022-12-14T09:37:11.586Z,55.48
2022-12-14T09:40:29.742Z,53.73
2022-12-14T09:43:53.745Z,54.08
2022-12-14T09:47:17.144Z,55.03
2022-12-14T09:50:35.473Z,52.15
2022-12-14T09:54:00.719Z,50.95
2022-12-14T09:57:20.274Z,49.50
2022-12-14T10:00:51.472Z,49.80
2022-12-14T10:04:07.866Z,49.65
2022-12-14T10:07:34.127Z,84.08
2022-12-14T10:10:59.166Z,50.08
2022-12-14T10:14:25.502Z,47.85
2022-12-14T10:17:57.066Z,43.65
2022-12-14T10:21:18.126Z,46.40
2022-12-14T10:24:38.713Z,47.35
2022-12-14T10:28:10.856Z,48.20
2022-12-14T10:31:25.124Z,48.23
2022-12-14T10:34:44.751Z,49.18
2022-12-14T10:38:09.229Z,49.28
2022-12-14T10:41:31.496Z,48.45
2022-12-14T10:45:09.671Z,47.05
2022-12-14T10:48:30.991Z,51.43
2022-12-14T10:51:52.906Z,51.88
2022-12-14T10:55:17.665Z,48.25
2022-12-14T10:58:35.248Z,47.55
2022-12-14T11:01:54.155Z,50.80
2022-12-14T11:05:20.607Z,50.85
2022-12-14T11:08:54.425Z,52.78
2022-12-14T11:12:24.548Z,51.18
2022-12-14T11:15:44.950Z,53.10
2022-12-14T11:19:09.978Z,49.03
2022-12-14T11:22:26.433Z,50.40
2022-12-14T11:25:51.296Z,49.65
2022-12-14T11:29:10.053Z,49.15
2022-12-14T11:32:35.960Z,52.93
2022-12-14T11:36:00.654Z,49.98
2022-12-14T11:39:29.346Z,50.80
2022-12-14T11:42:54.425Z,163.60
2022-12-14T11:46:11.808Z,69.55
2022-12-14T11:49:38.754Z,53.45
2022-12-14T11:52:55.428Z,50.58
2022-12-14T11:56:16.943Z,52.83
2022-12-14T11:59:44.300Z,53.75
2022-12-14T12:03:07.652Z,52.75
2022-12-14T12:06:31.525Z,50.83
2022-12-14T12:09:51.050Z,51.78
2022-12-14T12:16:27.804Z,54.15
2022-12-14T12:19:48.252Z,54.13
2022-12-14T12:23:11.876Z,54.83
2022-12-14T12:26:35.517Z,52.73
2022-12-14T12:29:56.670Z,51.65
2022-12-14T12:33:39.648Z,53.78
2022-12-14T12:37:25.249Z,55.38
2022-12-14T12:40:25.160Z,52.78
2022-12-14T12:43:50.022Z,54.13
2022-12-14T12:47:31.176Z,54.50
2022-12-14T12:50:39.728Z,56.05
2022-12-14T12:54:01.135Z,54.33
2022-12-14T12:57:22.606Z,56.38
2022-12-14T13:00:41.800Z,57.48
2022-12-14T13:04:03.229Z,54.80
2022-12-14T13:07:30.546Z,58.75
2022-12-14T13:14:19.079Z,59.95
2022-12-14T13:17:43.553Z,63.20
2022-12-14T13:21:08.946Z,171.78
2022-12-14T13:24:29.356Z,77.15
2022-12-14T13:31:33.142Z,62.83
2022-12-14T13:34:59.833Z,62.30
2022-12-14T13:38:36.919Z,62.65
2022-12-14T13:41:58.089Z,60.53
2022-12-14T13:45:27.966Z,61.35
2022-12-14T13:48:49.507Z,60.75
2022-12-14T13:52:07.716Z,63.75
2022-12-14T13:55:42.813Z,63.40
2022-12-14T13:59:01.120Z,64.73
2022-12-14T14:02:45.872Z,61.18
2022-12-14T14:06:09.279Z,63.78
2022-12-14T14:10:08.547Z,63.23
2022-12-14T14:14:09.647Z,58.58
2022-12-14T14:17:30.769Z,63.25
2022-12-14T14:20:58.609Z,60.58
2022-12-14T14:24:27.258Z,63.90
2022-12-14T14:27:51.147Z,63.15
2022-12-14T14:31:08.325Z,61.80
2022-12-14T14:37:42.051Z,105.88
2022-12-14T14:41:19.211Z,70.63
2022-12-14T14:44:31.206Z,65.40
2022-12-14T14:47:48.668Z,62.75
2022-12-14T14:51:26.038Z,60.80
2022-12-14T14:55:21.796Z,62.45
2022-12-14T14:58:18.726Z,64.18
2022-12-14T15:01:37.516Z,63.55
2022-12-14T15:04:57.065Z,60.13
2022-12-14T15:08:31.401Z,66.43
2022-12-14T15:11:56.060Z,66.40
2022-12-14T15:15:22.892Z,65.03
2022-12-14T15:18:40.664Z,63.90
2022-12-14T15:22:01.007Z,66.48
2022-12-14T15:25:23.266Z,69.50
2022-12-14T15:28:40.039Z,66.98
2022-12-14T15:32:02.873Z,67.98
2022-12-14T15:35:29.791Z,66.10
2022-12-14T15:38:46.908Z,69.83
2022-12-14T15:42:20.533Z,67.75
2022-12-14T15:45:43.464Z,67.25
2022-12-14T15:49:05.360Z,69.08
2022-12-14T15:52:22.151Z,65.23
2022-12-14T15:55:51.442Z,66.10
2022-12-14T15:59:11.529Z,67.58
2022-12-14T16:02:34.904Z,67.70
2022-12-14T16:05:52.137Z,68.00
2022-12-14T16:09:15.014Z,67.37
2022-12-14T16:16:00.080Z,74.13
2022-12-14T16:19:27.839Z,68.23
2022-12-14T16:22:42.673Z,64.25
2022-12-14T16:26:04.608Z,65.65
2022-12-14T16:29:31.198Z,64.98
2022-12-14T16:32:49.976Z,67.75
2022-12-14T16:36:13.418Z,69.50
2022-12-14T16:39:32.118Z,65.60
2022-12-14T16:46:22.893Z,66.55
2022-12-14T16:49:43.529Z,67.53
2022-12-14T16:53:20.681Z,65.43
2022-12-14T16:56:45.196Z,64.70
2022-12-14T17:00:07.323Z,64.85
2022-12-14T17:03:31.009Z,63.75
2022-12-14T17:06:56.212Z,62.15
2022-12-14T17:10:16.438Z,63.93
2022-12-14T17:13:33.808Z,62.18
2022-12-14T17:16:51.647Z,62.23
2022-12-14T17:20:13.884Z,61.18
2022-12-14T17:23:29.141Z,62.88
2022-12-14T17:26:48.234Z,62.10
2022-12-14T17:30:05.057Z,64.53
2022-12-14T17:33:21.415Z,65.10
2022-12-14T17:36:37.961Z,98.90
2022-12-14T17:39:55.547Z,70.78
2022-12-14T17:43:17.145Z,66.25
2022-12-14T17:46:35.018Z,62.85
2022-12-14T17:49:53.951Z,62.65
2022-12-14T17:53:15.464Z,62.73
2022-12-14T17:56:32.676Z,60.88
2022-12-14T17:59:49.222Z,58.43
2022-12-14T18:03:06.011Z,60.00
2022-12-14T18:06:26.133Z,59.00
2022-12-14T18:09:50.742Z,61.05
2022-12-14T18:13:09.305Z,61.85
2022-12-14T18:16:29.383Z,58.45
2022-12-14T18:19:49.486Z,61.60
2022-12-14T18:23:06.457Z,62.48
2022-12-14T18:26:25.353Z,62.25
2022-12-14T18:29:42.087Z,64.88
2022-12-14T18:33:00.072Z,60.30
2022-12-14T18:36:22.314Z,62.85
2022-12-14T18:39:45.692Z,60.55
2022-12-14T18:43:05.031Z,58.23
2022-12-14T18:46:22.616Z,58.98
2022-12-14T18:49:39.550Z,59.68
2022-12-14T18:52:57.961Z,58.63
2022-12-14T18:56:17.908Z,59.40
2022-12-14T18:59:40.603Z,56.60
2022-12-14T19:02:54.531Z,97.10
2022-12-14T19:09:40.170Z,55.45
2022-12-14T19:12:58.424Z,54.00
2022-12-14T19:16:16.992Z,53.90
2022-12-14T19:19:39.524Z,56.13
2022-12-14T19:22:53.619Z,111.98
2022-12-14T19:26:11.046Z,62.55
2022-12-14T19:29:27.768Z,55.53
2022-12-14T19:32:45.039Z,56.78
2022-12-14T19:36:04.005Z,58.93
2022-12-14T19:39:23.818Z,58.73
2022-12-14T19:42:41.702Z,56.23
2022-12-14T19:45:58.504Z,54.48
2022-12-14T19:49:17.864Z,57.30
2022-12-14T19:52:35.293Z,56.75
2022-12-14T19:55:58.948Z,56.15
2022-12-14T20:02:33.184Z,59.65
2022-12-14T20:05:56.956Z,55.68
2022-12-14T20:09:15.248Z,55.43
2022-12-14T20:12:32.154Z,56.25
2022-12-14T20:15:54.680Z,52.40
2022-12-14T20:19:12.272Z,52.93
2022-12-14T20:22:31.228Z,51.10
2022-12-14T20:25:47.592Z,52.35
2022-12-14T20:29:06.789Z,52.68
2022-12-14T20:32:23.341Z,53.28
2022-12-14T20:35:41.228Z,58.13
2022-12-14T20:39:03.136Z,56.13
2022-12-14T20:42:19.605Z,55.98
2022-12-14T20:45:36.091Z,49.18
2022-12-14T20:48:55.811Z,46.05
2022-12-14T20:52:12.449Z,45.90
2022-12-14T20:55:29.794Z,45.78
2022-12-14T20:58:58.257Z,42.55
2022-12-14T21:02:17.130Z,38.10
2022-12-14T21:05:33.868Z,43.88
2022-12-14T21:09:04.656Z,34.48
2022-12-14T21:12:26.985Z,33.98
2022-12-14T21:15:44.587Z,33.40
2022-12-14T21:19:01.002Z,33.08
2022-12-14T21:22:21.193Z,32.03
2022-12-14T21:25:37.371Z,33.45
2022-12-14T21:28:53.585Z,31.85
2022-12-14T21:32:10.541Z,29.98
2022-12-14T21:35:26.962Z,31.78
2022-12-14T21:38:43.996Z,33.78
2022-12-14T21:42:16.643Z,27.60
2022-12-14T21:45:33.235Z,25.45
2022-12-14T21:48:49.549Z,26.13
2022-12-14T21:52:07.634Z,26.40
2022-12-14T21:55:24.263Z,24.48
2022-12-14T21:58:40.551Z,27.80
2022-12-14T22:01:56.951Z,26.38
2022-12-14T22:05:15.320Z,23.98
2022-12-14T22:08:31.733Z,22.15
2022-12-14T22:11:48.280Z,21.83
2022-12-14T22:15:04.507Z,20.78
2022-12-14T22:18:20.756Z,27.90
2022-12-14T22:21:37.448Z,29.50
2022-12-14T22:24:55.649Z,30.15
2022-12-14T22:28:12.105Z,28.65
2022-12-14T22:31:29.015Z,25.68
2022-12-14T22:34:45.933Z,24.33
2022-12-14T22:38:02.123Z,23.00
2022-12-14T22:41:20.687Z,23.53
2022-12-14T22:44:37.202Z,24.63
2022-12-14T22:47:53.460Z,21.33
2022-12-14T22:51:12.818Z,21.50
2022-12-14T22:54:31.680Z,21.63
2022-12-14T22:57:50.840Z,22.10
2022-12-14T23:01:07.524Z,21.10
2022-12-14T23:04:24.253Z,20.78
2022-12-14T23:07:41.077Z,20.60
2022-12-14T23:11:11.214Z,21.80
2022-12-14T23:14:42.341Z,22.15
2022-12-14T23:18:16.973Z,22.85
2022-12-14T23:21:47.092Z,20.33
2022-12-14T23:25:17.218Z,22.10
2022-12-14T23:28:49.955Z,20.98
2022-12-14T23:32:21.146Z,20.90
2022-12-14T23:35:51.161Z,22.43
2022-12-14T23:39:21.814Z,26.45
2022-12-14T23:42:52.116Z,30.98
2022-12-14T23:46:24.811Z,31.78
2022-12-14T23:49:54.891Z,28.45
2022-12-14T23:53:29.937Z,24.40
2022-12-14T23:57:00.401Z,22.38
